sensor_id;sensor_type;location;lat;lon;timestamp;temperature;humidity
24402;DHT22;12539;48.808;11.292;2023-07-29T00:02:16;19.80;97.00
24402;DHT22;12539;48.808;11.292;2023-07-29T00:04:42;19.80;96.90
24402;DHT22;12539;48.808;11.292;2023-07-29T00:07:07;19.90;97.10
24402;DHT22;12539;48.808;11.292;2023-07-29T00:09:33;19.90;97.30
24402;DHT22;12539;48.808;11.292;2023-07-29T00:11:58;19.90;97.20
24402;DHT22;12539;48.808;11.292;2023-07-29T00:14:24;19.90;97.20
24402;DHT22;12539;48.808;11.292;2023-07-29T00:16:49;19.90;97.10
24402;DHT22;12539;48.808;11.292;2023-07-29T00:19:15;19.90;97.10
24402;DHT22;12539;48.808;11.292;2023-07-29T00:21:40;19.90;97.00
24402;DHT22;12539;48.808;11.292;2023-07-29T00:24:06;19.90;97.10
24402;DHT22;12539;48.808;11.292;2023-07-29T00:26:32;19.90;97.10
24402;DHT22;12539;48.808;11.292;2023-07-29T00:28:58;19.90;97.10
24402;DHT22;12539;48.808;11.292;2023-07-29T00:31:23;19.80;96.90
24402;DHT22;12539;48.808;11.292;2023-07-29T00:33:49;19.80;96.90
24402;DHT22;12539;48.808;11.292;2023-07-29T00:36:14;19.80;97.10
24402;DHT22;12539;48.808;11.292;2023-07-29T00:38:40;19.70;97.30
24402;DHT22;12539;48.808;11.292;2023-07-29T00:41:05;19.60;97.30
24402;DHT22;12539;48.808;11.292;2023-07-29T00:43:32;19.60;97.30
24402;DHT22;12539;48.808;11.292;2023-07-29T00:45:57;19.60;97.40
24402;DHT22;12539;48.808;11.292;2023-07-29T00:48:23;19.50;97.60
24402;DHT22;12539;48.808;11.292;2023-07-29T00:50:49;19.50;97.60
24402;DHT22;12539;48.808;11.292;2023-07-29T00:53:15;19.50;97.80
24402;DHT22;12539;48.808;11.292;2023-07-29T00:55:41;19.50;97.70
24402;DHT22;12539;48.808;11.292;2023-07-29T00:58:07;19.50;97.70
24402;DHT22;12539;48.808;11.292;2023-07-29T01:00:32;19.60;97.70
24402;DHT22;12539;48.808;11.292;2023-07-29T01:02:58;19.50;97.60
24402;DHT22;12539;48.808;11.292;2023-07-29T01:05:23;19.50;97.60
24402;DHT22;12539;48.808;11.292;2023-07-29T01:07:59;19.50;97.60
24402;DHT22;12539;48.808;11.292;2023-07-29T01:13:06;19.40;97.50
24402;DHT22;12539;48.808;11.292;2023-07-29T01:15:43;19.40;97.40
24402;DHT22;12539;48.808;11.292;2023-07-29T01:18:11;19.40;97.40
24402;DHT22;12539;48.808;11.292;2023-07-29T01:20:40;19.40;97.40
24402;DHT22;12539;48.808;11.292;2023-07-29T01:23:07;19.30;97.30
24402;DHT22;12539;48.808;11.292;2023-07-29T01:25:32;19.30;97.40
24402;DHT22;12539;48.808;11.292;2023-07-29T01:27:58;19.20;97.50
24402;DHT22;12539;48.808;11.292;2023-07-29T01:30:29;19.20;97.60
24402;DHT22;12539;48.808;11.292;2023-07-29T01:33:16;19.10;97.60
24402;DHT22;12539;48.808;11.292;2023-07-29T01:36:18;19.10;97.50
24402;DHT22;12539;48.808;11.292;2023-07-29T01:38:35;19.10;97.60
24402;DHT22;12539;48.808;11.292;2023-07-29T01:41:02;19.00;97.60
24402;DHT22;12539;48.808;11.292;2023-07-29T01:43:28;19.00;97.60
24402;DHT22;12539;48.808;11.292;2023-07-29T01:45:54;19.00;97.70
24402;DHT22;12539;48.808;11.292;2023-07-29T01:48:19;19.00;97.70
24402;DHT22;12539;48.808;11.292;2023-07-29T01:50:45;19.00;97.70
24402;DHT22;12539;48.808;11.292;2023-07-29T01:53:10;18.90;97.70
24402;DHT22;12539;48.808;11.292;2023-07-29T01:55:36;18.90;97.80
24402;DHT22;12539;48.808;11.292;2023-07-29T01:58:01;18.90;97.90
24402;DHT22;12539;48.808;11.292;2023-07-29T02:00:27;18.90;98.00
24402;DHT22;12539;48.808;11.292;2023-07-29T02:02:53;18.80;98.10
24402;DHT22;12539;48.808;11.292;2023-07-29T02:05:18;18.80;98.20
24402;DHT22;12539;48.808;11.292;2023-07-29T02:07:44;18.80;98.20
24402;DHT22;12539;48.808;11.292;2023-07-29T02:10:09;18.80;98.30
24402;DHT22;12539;48.808;11.292;2023-07-29T02:12:35;18.80;98.40
24402;DHT22;12539;48.808;11.292;2023-07-29T02:15:00;18.80;98.50
24402;DHT22;12539;48.808;11.292;2023-07-29T02:17:26;18.80;98.60
24402;DHT22;12539;48.808;11.292;2023-07-29T02:19:52;18.80;98.70
24402;DHT22;12539;48.808;11.292;2023-07-29T02:22:17;18.80;98.60
24402;DHT22;12539;48.808;11.292;2023-07-29T02:24:43;18.80;98.70
24402;DHT22;12539;48.808;11.292;2023-07-29T02:27:09;18.90;98.60
24402;DHT22;12539;48.808;11.292;2023-07-29T02:29:34;18.90;98.40
24402;DHT22;12539;48.808;11.292;2023-07-29T02:32:00;18.90;98.40
24402;DHT22;12539;48.808;11.292;2023-07-29T02:34:26;18.90;98.40
24402;DHT22;12539;48.808;11.292;2023-07-29T02:36:51;18.90;98.30
24402;DHT22;12539;48.808;11.292;2023-07-29T02:39:17;18.90;98.20
24402;DHT22;12539;48.808;11.292;2023-07-29T02:41:42;18.80;98.30
24402;DHT22;12539;48.808;11.292;2023-07-29T02:44:08;18.80;98.20
24402;DHT22;12539;48.808;11.292;2023-07-29T02:46:33;18.80;98.20
24402;DHT22;12539;48.808;11.292;2023-07-29T02:48:59;18.80;98.00
24402;DHT22;12539;48.808;11.292;2023-07-29T02:51:24;18.80;98.10
24402;DHT22;12539;48.808;11.292;2023-07-29T02:53:50;18.80;98.10
24402;DHT22;12539;48.808;11.292;2023-07-29T02:56:16;18.70;98.30
24402;DHT22;12539;48.808;11.292;2023-07-29T02:58:41;18.80;98.40
24402;DHT22;12539;48.808;11.292;2023-07-29T03:01:07;18.80;98.50
24402;DHT22;12539;48.808;11.292;2023-07-29T03:03:33;18.80;98.50
24402;DHT22;12539;48.808;11.292;2023-07-29T03:06:02;18.90;98.50
24402;DHT22;12539;48.808;11.292;2023-07-29T03:08:28;18.90;98.50
24402;DHT22;12539;48.808;11.292;2023-07-29T03:10:54;18.90;98.50
24402;DHT22;12539;48.808;11.292;2023-07-29T03:13:20;18.90;98.50
24402;DHT22;12539;48.808;11.292;2023-07-29T03:15:45;19.00;98.60
24402;DHT22;12539;48.808;11.292;2023-07-29T03:18:11;19.00;98.60
24402;DHT22;12539;48.808;11.292;2023-07-29T03:20:36;19.00;98.70
24402;DHT22;12539;48.808;11.292;2023-07-29T03:23:02;19.00;98.80
24402;DHT22;12539;48.808;11.292;2023-07-29T03:25:28;19.10;98.80
24402;DHT22;12539;48.808;11.292;2023-07-29T03:27:54;19.10;98.70
24402;DHT22;12539;48.808;11.292;2023-07-29T03:30:20;19.10;98.60
24402;DHT22;12539;48.808;11.292;2023-07-29T03:32:46;19.20;98.60
24402;DHT22;12539;48.808;11.292;2023-07-29T03:35:12;19.20;98.50
24402;DHT22;12539;48.808;11.292;2023-07-29T03:37:37;19.30;98.50
24402;DHT22;12539;48.808;11.292;2023-07-29T03:40:03;19.20;98.40
24402;DHT22;12539;48.808;11.292;2023-07-29T03:42:29;19.30;98.40
24402;DHT22;12539;48.808;11.292;2023-07-29T03:44:55;19.30;98.40
24402;DHT22;12539;48.808;11.292;2023-07-29T03:47:20;19.30;98.40
24402;DHT22;12539;48.808;11.292;2023-07-29T03:49:46;19.30;98.30
24402;DHT22;12539;48.808;11.292;2023-07-29T03:52:11;19.40;98.30
24402;DHT22;12539;48.808;11.292;2023-07-29T03:54:37;19.40;98.30
24402;DHT22;12539;48.808;11.292;2023-07-29T03:57:02;19.40;98.30
24402;DHT22;12539;48.808;11.292;2023-07-29T03:59:28;19.40;98.20
24402;DHT22;12539;48.808;11.292;2023-07-29T04:01:53;19.40;98.30
24402;DHT22;12539;48.808;11.292;2023-07-29T04:04:19;19.40;98.40
24402;DHT22;12539;48.808;11.292;2023-07-29T04:06:45;19.30;98.50
24402;DHT22;12539;48.808;11.292;2023-07-29T04:09:10;19.30;98.60
24402;DHT22;12539;48.808;11.292;2023-07-29T04:11:36;19.30;98.60
24402;DHT22;12539;48.808;11.292;2023-07-29T04:14:01;19.30;98.70
24402;DHT22;12539;48.808;11.292;2023-07-29T04:16:27;19.30;98.70
24402;DHT22;12539;48.808;11.292;2023-07-29T04:18:54;19.30;98.70
24402;DHT22;12539;48.808;11.292;2023-07-29T04:21:19;19.30;98.80
24402;DHT22;12539;48.808;11.292;2023-07-29T04:23:45;19.40;98.90
24402;DHT22;12539;48.808;11.292;2023-07-29T04:26:10;19.40;98.90
24402;DHT22;12539;48.808;11.292;2023-07-29T04:28:36;19.40;98.80
24402;DHT22;12539;48.808;11.292;2023-07-29T04:31:02;19.50;98.60
24402;DHT22;12539;48.808;11.292;2023-07-29T04:33:29;19.60;98.60
24402;DHT22;12539;48.808;11.292;2023-07-29T04:35:54;19.60;98.50
24402;DHT22;12539;48.808;11.292;2023-07-29T04:38:20;19.70;98.80
24402;DHT22;12539;48.808;11.292;2023-07-29T04:40:45;19.70;98.40
24402;DHT22;12539;48.808;11.292;2023-07-29T04:43:11;19.70;98.40
24402;DHT22;12539;48.808;11.292;2023-07-29T04:45:41;19.70;98.30
24402;DHT22;12539;48.808;11.292;2023-07-29T04:48:07;19.70;98.30
24402;DHT22;12539;48.808;11.292;2023-07-29T04:50:32;19.80;98.30
24402;DHT22;12539;48.808;11.292;2023-07-29T04:52:58;19.80;98.30
24402;DHT22;12539;48.808;11.292;2023-07-29T04:55:23;19.90;98.20
24402;DHT22;12539;48.808;11.292;2023-07-29T04:57:49;20.00;98.10
24402;DHT22;12539;48.808;11.292;2023-07-29T05:00:14;20.00;98.00
24402;DHT22;12539;48.808;11.292;2023-07-29T05:02:40;20.10;98.00
24402;DHT22;12539;48.808;11.292;2023-07-29T05:05:06;20.10;98.00
24402;DHT22;12539;48.808;11.292;2023-07-29T05:07:31;20.20;97.90
24402;DHT22;12539;48.808;11.292;2023-07-29T05:09:57;20.30;97.80
24402;DHT22;12539;48.808;11.292;2023-07-29T05:12:22;20.50;97.70
24402;DHT22;12539;48.808;11.292;2023-07-29T05:14:48;20.60;97.60
24402;DHT22;12539;48.808;11.292;2023-07-29T05:17:14;20.70;97.60
24402;DHT22;12539;48.808;11.292;2023-07-29T05:19:40;20.90;97.30
24402;DHT22;12539;48.808;11.292;2023-07-29T05:22:05;21.00;96.90
24402;DHT22;12539;48.808;11.292;2023-07-29T05:24:31;21.00;96.80
24402;DHT22;12539;48.808;11.292;2023-07-29T05:26:56;21.00;96.70
24402;DHT22;12539;48.808;11.292;2023-07-29T05:29:22;21.00;96.60
24402;DHT22;12539;48.808;11.292;2023-07-29T05:31:47;21.00;96.50
24402;DHT22;12539;48.808;11.292;2023-07-29T05:34:13;21.00;96.50
24402;DHT22;12539;48.808;11.292;2023-07-29T05:36:38;21.00;96.60
24402;DHT22;12539;48.808;11.292;2023-07-29T05:39:04;21.00;96.60
24402;DHT22;12539;48.808;11.292;2023-07-29T05:41:30;21.00;96.50
24402;DHT22;12539;48.808;11.292;2023-07-29T05:43:55;21.00;96.50
24402;DHT22;12539;48.808;11.292;2023-07-29T05:46:21;21.10;96.50
24402;DHT22;12539;48.808;11.292;2023-07-29T05:48:46;21.10;96.40
24402;DHT22;12539;48.808;11.292;2023-07-29T05:51:12;21.20;96.40
24402;DHT22;12539;48.808;11.292;2023-07-29T05:53:37;21.30;96.20
24402;DHT22;12539;48.808;11.292;2023-07-29T05:56:03;21.30;96.10
24402;DHT22;12539;48.808;11.292;2023-07-29T05:58:29;21.30;96.10
24402;DHT22;12539;48.808;11.292;2023-07-29T06:00:56;21.30;96.00
24402;DHT22;12539;48.808;11.292;2023-07-29T06:03:22;21.30;96.10
24402;DHT22;12539;48.808;11.292;2023-07-29T06:05:48;21.30;96.10
24402;DHT22;12539;48.808;11.292;2023-07-29T06:08:14;21.20;96.00
24402;DHT22;12539;48.808;11.292;2023-07-29T06:10:39;21.10;96.10
24402;DHT22;12539;48.808;11.292;2023-07-29T06:13:05;21.10;96.40
24402;DHT22;12539;48.808;11.292;2023-07-29T06:15:31;21.10;96.40
24402;DHT22;12539;48.808;11.292;2023-07-29T06:17:56;21.10;96.40
24402;DHT22;12539;48.808;11.292;2023-07-29T06:20:22;21.10;96.40
24402;DHT22;12539;48.808;11.292;2023-07-29T06:22:47;21.10;96.40
24402;DHT22;12539;48.808;11.292;2023-07-29T06:25:13;21.10;96.30
24402;DHT22;12539;48.808;11.292;2023-07-29T06:27:38;21.00;96.30
24402;DHT22;12539;48.808;11.292;2023-07-29T06:30:04;20.90;96.40
24402;DHT22;12539;48.808;11.292;2023-07-29T06:32:31;20.80;96.60
24402;DHT22;12539;48.808;11.292;2023-07-29T06:34:56;20.70;96.80
24402;DHT22;12539;48.808;11.292;2023-07-29T06:37:22;20.60;97.10
24402;DHT22;12539;48.808;11.292;2023-07-29T06:39:47;20.70;97.40
24402;DHT22;12539;48.808;11.292;2023-07-29T06:42:13;20.70;97.40
24402;DHT22;12539;48.808;11.292;2023-07-29T06:44:39;20.80;97.50
24402;DHT22;12539;48.808;11.292;2023-07-29T06:47:05;20.80;97.50
24402;DHT22;12539;48.808;11.292;2023-07-29T06:49:30;21.00;97.50
24402;DHT22;12539;48.808;11.292;2023-07-29T06:51:56;21.00;97.40
24402;DHT22;12539;48.808;11.292;2023-07-29T06:54:24;20.90;97.40
24402;DHT22;12539;48.808;11.292;2023-07-29T06:56:51;21.00;97.50
24402;DHT22;12539;48.808;11.292;2023-07-29T06:59:17;20.90;97.50
24402;DHT22;12539;48.808;11.292;2023-07-29T07:01:42;20.90;97.60
24402;DHT22;12539;48.808;11.292;2023-07-29T07:04:08;21.00;97.70
24402;DHT22;12539;48.808;11.292;2023-07-29T07:06:34;21.00;97.80
24402;DHT22;12539;48.808;11.292;2023-07-29T07:08:59;21.10;97.70
24402;DHT22;12539;48.808;11.292;2023-07-29T07:11:25;21.10;97.60
24402;DHT22;12539;48.808;11.292;2023-07-29T07:13:51;21.10;97.70
24402;DHT22;12539;48.808;11.292;2023-07-29T07:16:16;21.20;97.70
24402;DHT22;12539;48.808;11.292;2023-07-29T07:18:42;21.20;97.50
24402;DHT22;12539;48.808;11.292;2023-07-29T07:21:07;21.20;97.40
24402;DHT22;12539;48.808;11.292;2023-07-29T07:23:33;21.20;97.50
24402;DHT22;12539;48.808;11.292;2023-07-29T07:25:58;21.20;97.60
24402;DHT22;12539;48.808;11.292;2023-07-29T07:28:24;21.20;98.10
24402;DHT22;12539;48.808;11.292;2023-07-29T07:30:49;21.20;97.70
24402;DHT22;12539;48.808;11.292;2023-07-29T07:33:15;21.20;97.60
24402;DHT22;12539;48.808;11.292;2023-07-29T07:35:42;21.10;97.50
24402;DHT22;12539;48.808;11.292;2023-07-29T07:38:08;21.00;97.50
24402;DHT22;12539;48.808;11.292;2023-07-29T07:40:35;20.90;97.80
24402;DHT22;12539;48.808;11.292;2023-07-29T07:43:01;20.70;98.10
24402;DHT22;12539;48.808;11.292;2023-07-29T07:45:26;20.50;98.50
24402;DHT22;12539;48.808;11.292;2023-07-29T07:47:52;20.40;99.40
24402;DHT22;12539;48.808;11.292;2023-07-29T07:53:03;20.00;99.90
24402;DHT22;12539;48.808;11.292;2023-07-29T07:55:29;19.80;99.90
24402;DHT22;12539;48.808;11.292;2023-07-29T07:57:54;19.70;99.90
24402;DHT22;12539;48.808;11.292;2023-07-29T08:00:20;19.60;99.90
24402;DHT22;12539;48.808;11.292;2023-07-29T08:02:46;19.50;99.90
24402;DHT22;12539;48.808;11.292;2023-07-29T08:05:12;19.40;99.90
24402;DHT22;12539;48.808;11.292;2023-07-29T08:07:37;19.40;99.90
24402;DHT22;12539;48.808;11.292;2023-07-29T08:10:03;19.60;99.90
24402;DHT22;12539;48.808;11.292;2023-07-29T08:12:28;19.70;99.90
24402;DHT22;12539;48.808;11.292;2023-07-29T08:14:54;20.00;99.90
24402;DHT22;12539;48.808;11.292;2023-07-29T08:17:19;20.20;99.90
24402;DHT22;12539;48.808;11.292;2023-07-29T08:19:45;20.40;99.90
24402;DHT22;12539;48.808;11.292;2023-07-29T08:22:11;20.50;99.90
24402;DHT22;12539;48.808;11.292;2023-07-29T08:24:37;20.70;99.90
24402;DHT22;12539;48.808;11.292;2023-07-29T08:27:03;20.80;99.90
24402;DHT22;12539;48.808;11.292;2023-07-29T08:29:28;21.00;99.90
24402;DHT22;12539;48.808;11.292;2023-07-29T08:31:54;21.10;99.90
24402;DHT22;12539;48.808;11.292;2023-07-29T08:34:20;21.30;99.90
24402;DHT22;12539;48.808;11.292;2023-07-29T08:36:46;21.50;99.90
24402;DHT22;12539;48.808;11.292;2023-07-29T08:39:11;21.70;99.90
24402;DHT22;12539;48.808;11.292;2023-07-29T08:41:39;22.00;99.90
24402;DHT22;12539;48.808;11.292;2023-07-29T08:44:17;22.20;99.90
24402;DHT22;12539;48.808;11.292;2023-07-29T08:46:43;22.40;99.90
24402;DHT22;12539;48.808;11.292;2023-07-29T08:49:11;22.60;99.90
24402;DHT22;12539;48.808;11.292;2023-07-29T08:51:36;22.70;99.90
24402;DHT22;12539;48.808;11.292;2023-07-29T08:54:03;22.70;99.90
24402;DHT22;12539;48.808;11.292;2023-07-29T08:56:28;22.70;99.90
24402;DHT22;12539;48.808;11.292;2023-07-29T08:58:55;22.80;99.90
24402;DHT22;12539;48.808;11.292;2023-07-29T09:01:21;22.90;99.90
24402;DHT22;12539;48.808;11.292;2023-07-29T09:03:46;23.10;99.90
24402;DHT22;12539;48.808;11.292;2023-07-29T09:06:12;23.30;99.50
24402;DHT22;12539;48.808;11.292;2023-07-29T09:08:39;23.60;99.20
24402;DHT22;12539;48.808;11.292;2023-07-29T09:11:04;24.00;98.40
24402;DHT22;12539;48.808;11.292;2023-07-29T09:13:30;24.30;98.00
24402;DHT22;12539;48.808;11.292;2023-07-29T09:15:59;24.30;97.40
24402;DHT22;12539;48.808;11.292;2023-07-29T09:18:25;24.20;96.80
24402;DHT22;12539;48.808;11.292;2023-07-29T09:20:51;23.90;96.50
24402;DHT22;12539;48.808;11.292;2023-07-29T09:23:17;23.60;96.70
24402;DHT22;12539;48.808;11.292;2023-07-29T09:25:43;23.30;96.70
24402;DHT22;12539;48.808;11.292;2023-07-29T09:28:15;23.00;97.00
24402;DHT22;12539;48.808;11.292;2023-07-29T09:30:41;22.70;97.30
24402;DHT22;12539;48.808;11.292;2023-07-29T09:33:10;22.30;97.90
24402;DHT22;12539;48.808;11.292;2023-07-29T09:35:37;22.00;98.50
24402;DHT22;12539;48.808;11.292;2023-07-29T09:38:03;21.90;99.00
24402;DHT22;12539;48.808;11.292;2023-07-29T09:40:36;21.80;99.60
24402;DHT22;12539;48.808;11.292;2023-07-29T09:43:02;21.80;99.90
24402;DHT22;12539;48.808;11.292;2023-07-29T09:45:29;21.90;99.90
24402;DHT22;12539;48.808;11.292;2023-07-29T09:47:56;22.00;99.90
24402;DHT22;12539;48.808;11.292;2023-07-29T09:50:25;22.20;99.90
24402;DHT22;12539;48.808;11.292;2023-07-29T09:52:51;22.60;99.90
24402;DHT22;12539;48.808;11.292;2023-07-29T09:55:17;23.00;99.90
24402;DHT22;12539;48.808;11.292;2023-07-29T09:57:43;23.30;99.10
24402;DHT22;12539;48.808;11.292;2023-07-29T10:00:10;23.60;97.90
24402;DHT22;12539;48.808;11.292;2023-07-29T10:02:37;23.90;97.30
24402;DHT22;12539;48.808;11.292;2023-07-29T10:05:03;24.10;97.10
24402;DHT22;12539;48.808;11.292;2023-07-29T10:07:29;24.30;96.10
24402;DHT22;12539;48.808;11.292;2023-07-29T10:09:55;24.30;95.40
24402;DHT22;12539;48.808;11.292;2023-07-29T10:12:21;24.30;95.30
24402;DHT22;12539;48.808;11.292;2023-07-29T10:14:47;24.20;95.30
24402;DHT22;12539;48.808;11.292;2023-07-29T10:17:13;24.30;95.00
24402;DHT22;12539;48.808;11.292;2023-07-29T10:19:42;24.30;95.10
24402;DHT22;12539;48.808;11.292;2023-07-29T10:22:08;24.50;95.00
24402;DHT22;12539;48.808;11.292;2023-07-29T10:24:35;24.60;94.10
24402;DHT22;12539;48.808;11.292;2023-07-29T10:27:04;24.60;94.20
24402;DHT22;12539;48.808;11.292;2023-07-29T10:29:31;24.70;94.20
24402;DHT22;12539;48.808;11.292;2023-07-29T10:32:01;24.70;93.60
24402;DHT22;12539;48.808;11.292;2023-07-29T10:37:29;24.60;93.40
24402;DHT22;12539;48.808;11.292;2023-07-29T10:39:55;24.60;93.50
24402;DHT22;12539;48.808;11.292;2023-07-29T10:42:21;24.70;93.30
24402;DHT22;12539;48.808;11.292;2023-07-29T10:44:48;24.70;93.20
24402;DHT22;12539;48.808;11.292;2023-07-29T10:49:46;24.90;92.90
24402;DHT22;12539;48.808;11.292;2023-07-29T10:52:15;25.10;92.80
24402;DHT22;12539;48.808;11.292;2023-07-29T10:54:50;25.20;92.60
24402;DHT22;12539;48.808;11.292;2023-07-29T10:57:29;25.30;92.30
24402;DHT22;12539;48.808;11.292;2023-07-29T10:59:57;25.50;91.90
24402;DHT22;12539;48.808;11.292;2023-07-29T11:02:28;25.70;91.40
24402;DHT22;12539;48.808;11.292;2023-07-29T11:04:53;25.80;90.80
24402;DHT22;12539;48.808;11.292;2023-07-29T11:07:20;25.90;90.80
24402;DHT22;12539;48.808;11.292;2023-07-29T11:09:56;26.00;90.60
24402;DHT22;12539;48.808;11.292;2023-07-29T11:17:37;26.10;88.90
24402;DHT22;12539;48.808;11.292;2023-07-29T11:20:04;26.00;88.30
24402;DHT22;12539;48.808;11.292;2023-07-29T11:22:30;25.90;87.50
24402;DHT22;12539;48.808;11.292;2023-07-29T11:24:55;25.90;87.30
24402;DHT22;12539;48.808;11.292;2023-07-29T11:27:21;26.00;86.90
24402;DHT22;12539;48.808;11.292;2023-07-29T11:29:47;26.00;86.00
24402;DHT22;12539;48.808;11.292;2023-07-29T11:32:13;26.10;86.00
24402;DHT22;12539;48.808;11.292;2023-07-29T11:34:38;26.30;85.60
24402;DHT22;12539;48.808;11.292;2023-07-29T11:37:05;26.30;85.10
24402;DHT22;12539;48.808;11.292;2023-07-29T11:39:32;26.30;85.20
24402;DHT22;12539;48.808;11.292;2023-07-29T11:41:58;26.30;84.40
24402;DHT22;12539;48.808;11.292;2023-07-29T11:44:24;26.20;84.50
24402;DHT22;12539;48.808;11.292;2023-07-29T11:46:50;26.00;85.00
24402;DHT22;12539;48.808;11.292;2023-07-29T11:49:15;25.90;85.30
24402;DHT22;12539;48.808;11.292;2023-07-29T11:51:41;25.70;85.30
24402;DHT22;12539;48.808;11.292;2023-07-29T11:54:07;25.50;85.00
24402;DHT22;12539;48.808;11.292;2023-07-29T11:56:34;25.50;84.70
24402;DHT22;12539;48.808;11.292;2023-07-29T11:59:00;25.30;84.50
24402;DHT22;12539;48.808;11.292;2023-07-29T12:01:27;25.20;83.80
24402;DHT22;12539;48.808;11.292;2023-07-29T12:03:52;25.10;84.00
24402;DHT22;12539;48.808;11.292;2023-07-29T12:06:18;25.10;84.60
24402;DHT22;12539;48.808;11.292;2023-07-29T12:08:44;25.30;84.80
24402;DHT22;12539;48.808;11.292;2023-07-29T12:11:10;25.50;84.00
24402;DHT22;12539;48.808;11.292;2023-07-29T12:13:38;25.60;82.50
24402;DHT22;12539;48.808;11.292;2023-07-29T12:16:04;25.80;80.90
24402;DHT22;12539;48.808;11.292;2023-07-29T12:18:33;25.90;79.40
24402;DHT22;12539;48.808;11.292;2023-07-29T12:20:59;25.90;78.40
24402;DHT22;12539;48.808;11.292;2023-07-29T12:23:25;25.90;79.10
24402;DHT22;12539;48.808;11.292;2023-07-29T12:25:57;25.90;79.60
24402;DHT22;12539;48.808;11.292;2023-07-29T12:28:23;25.80;79.40
24402;DHT22;12539;48.808;11.292;2023-07-29T12:30:56;25.70;77.30
24402;DHT22;12539;48.808;11.292;2023-07-29T12:33:31;25.60;77.30
24402;DHT22;12539;48.808;11.292;2023-07-29T12:35:56;25.70;77.50
24402;DHT22;12539;48.808;11.292;2023-07-29T12:38:22;25.80;76.00
24402;DHT22;12539;48.808;11.292;2023-07-29T12:40:48;25.80;76.10
24402;DHT22;12539;48.808;11.292;2023-07-29T12:43:13;25.70;76.20
24402;DHT22;12539;48.808;11.292;2023-07-29T12:45:39;25.50;77.60
24402;DHT22;12539;48.808;11.292;2023-07-29T12:48:09;24.90;87.20
24402;DHT22;12539;48.808;11.292;2023-07-29T12:50:35;24.00;92.10
24402;DHT22;12539;48.808;11.292;2023-07-29T12:53:00;23.10;93.80
24402;DHT22;12539;48.808;11.292;2023-07-29T12:55:26;22.40;95.80
24402;DHT22;12539;48.808;11.292;2023-07-29T12:57:51;21.90;98.10
24402;DHT22;12539;48.808;11.292;2023-07-29T13:00:17;21.70;99.90
24402;DHT22;12539;48.808;11.292;2023-07-29T13:02:42;21.60;99.90
24402;DHT22;12539;48.808;11.292;2023-07-29T13:05:09;21.60;99.90
24402;DHT22;12539;48.808;11.292;2023-07-29T13:07:36;21.80;99.90
24402;DHT22;12539;48.808;11.292;2023-07-29T13:10:01;22.00;99.90
24402;DHT22;12539;48.808;11.292;2023-07-29T13:12:27;22.10;99.90
24402;DHT22;12539;48.808;11.292;2023-07-29T13:14:52;22.20;99.90
24402;DHT22;12539;48.808;11.292;2023-07-29T13:17:18;22.30;99.90
24402;DHT22;12539;48.808;11.292;2023-07-29T13:19:43;22.40;99.90
24402;DHT22;12539;48.808;11.292;2023-07-29T13:22:09;22.40;99.90
24402;DHT22;12539;48.808;11.292;2023-07-29T13:24:34;22.50;99.90
24402;DHT22;12539;48.808;11.292;2023-07-29T13:27:00;22.40;99.90
24402;DHT22;12539;48.808;11.292;2023-07-29T13:29:26;22.40;99.90
24402;DHT22;12539;48.808;11.292;2023-07-29T13:31:51;22.50;99.90
24402;DHT22;12539;48.808;11.292;2023-07-29T13:34:17;22.60;99.90
24402;DHT22;12539;48.808;11.292;2023-07-29T13:36:42;22.60;99.90
24402;DHT22;12539;48.808;11.292;2023-07-29T13:39:08;22.60;99.90
24402;DHT22;12539;48.808;11.292;2023-07-29T13:41:33;22.60;99.90
24402;DHT22;12539;48.808;11.292;2023-07-29T13:43:59;22.60;99.90
24402;DHT22;12539;48.808;11.292;2023-07-29T13:46:24;22.70;99.90
24402;DHT22;12539;48.808;11.292;2023-07-29T13:48:50;22.70;99.90
24402;DHT22;12539;48.808;11.292;2023-07-29T13:51:15;22.80;99.90
24402;DHT22;12539;48.808;11.292;2023-07-29T13:53:41;23.00;99.90
24402;DHT22;12539;48.808;11.292;2023-07-29T13:56:06;23.00;99.90
24402;DHT22;12539;48.808;11.292;2023-07-29T13:58:32;23.00;99.90
24402;DHT22;12539;48.808;11.292;2023-07-29T14:00:57;22.90;99.90
24402;DHT22;12539;48.808;11.292;2023-07-29T14:03:23;23.00;99.90
24402;DHT22;12539;48.808;11.292;2023-07-29T14:05:48;23.10;99.90
24402;DHT22;12539;48.808;11.292;2023-07-29T14:08:14;23.30;99.90
24402;DHT22;12539;48.808;11.292;2023-07-29T14:10:39;23.40;99.90
24402;DHT22;12539;48.808;11.292;2023-07-29T14:13:05;23.50;99.90
24402;DHT22;12539;48.808;11.292;2023-07-29T14:15:30;23.50;99.90
24402;DHT22;12539;48.808;11.292;2023-07-29T14:17:57;23.50;99.90
24402;DHT22;12539;48.808;11.292;2023-07-29T14:20:23;23.50;99.90
24402;DHT22;12539;48.808;11.292;2023-07-29T14:22:49;23.60;99.90
24402;DHT22;12539;48.808;11.292;2023-07-29T14:25:16;23.60;99.90
24402;DHT22;12539;48.808;11.292;2023-07-29T14:27:42;23.70;99.90
24402;DHT22;12539;48.808;11.292;2023-07-29T14:30:08;23.70;99.90
24402;DHT22;12539;48.808;11.292;2023-07-29T14:32:33;23.70;99.90
24402;DHT22;12539;48.808;11.292;2023-07-29T14:34:59;23.60;99.90
24402;DHT22;12539;48.808;11.292;2023-07-29T14:37:29;23.50;99.90
24402;DHT22;12539;48.808;11.292;2023-07-29T14:39:55;23.50;99.90
24402;DHT22;12539;48.808;11.292;2023-07-29T14:42:20;23.40;99.90
24402;DHT22;12539;48.808;11.292;2023-07-29T14:44:46;23.40;99.90
24402;DHT22;12539;48.808;11.292;2023-07-29T14:47:11;23.40;99.90
24402;DHT22;12539;48.808;11.292;2023-07-29T14:49:37;23.40;99.90
24402;DHT22;12539;48.808;11.292;2023-07-29T14:52:02;23.40;99.90
24402;DHT22;12539;48.808;11.292;2023-07-29T14:54:28;23.40;99.90
24402;DHT22;12539;48.808;11.292;2023-07-29T14:56:54;23.40;99.90
24402;DHT22;12539;48.808;11.292;2023-07-29T14:59:19;23.40;99.90
24402;DHT22;12539;48.808;11.292;2023-07-29T15:01:45;23.50;99.90
24402;DHT22;12539;48.808;11.292;2023-07-29T15:04:10;23.60;99.90
24402;DHT22;12539;48.808;11.292;2023-07-29T15:06:36;23.60;99.90
24402;DHT22;12539;48.808;11.292;2023-07-29T15:09:02;23.70;99.90
24402;DHT22;12539;48.808;11.292;2023-07-29T15:11:28;23.70;99.90
24402;DHT22;12539;48.808;11.292;2023-07-29T15:13:54;23.80;99.90
24402;DHT22;12539;48.808;11.292;2023-07-29T15:16:22;23.80;99.90
24402;DHT22;12539;48.808;11.292;2023-07-29T15:18:48;23.80;99.90
24402;DHT22;12539;48.808;11.292;2023-07-29T15:21:13;23.80;99.90
24402;DHT22;12539;48.808;11.292;2023-07-29T15:23:39;23.80;99.90
24402;DHT22;12539;48.808;11.292;2023-07-29T15:26:04;23.90;99.90